Mount Jewett, Pennsylvania
Current Conditions -  °F | °C
As of 6:39 PM on Saturday 22 Nov 2014 (Local Time) from KBFD Reporting Station
Overcast Overcast  
Wind Chill: 30°   Ceiling: 2300
Heat Index: 36°   Visibility: 10mi
Dew Point: 32°   Wind: 7mph
Humidity: 86%   Direction: 230°SW
Pressure: 30.07"   Gusts: NA
Location:  41.73°N, 78.64°W
Report Text: KBFD 222339Z AUTO 23006KT 10SM BKN023 OVC030 02/00 A3007 RMK AO2 RAE11 P0001 T00220000
Loading
Personal Weather Stations






























Interactive Weather Map New forecast layout! Learn more

10-Day Weather Forecast

Advertisements
Track Severe Weather on mobile